sensor_id;sensor_type;location;lat;lon;timestamp;P1;durP1;ratioP1;P2;durP2;ratioP2
3149;SDS011;32503;47.748;8.960;2023-04-16T00:00:38;4.27;;;3.97;;
3149;SDS011;32503;47.748;8.960;2023-04-16T00:03:05;3.40;;;3.10;;
3149;SDS011;32503;47.748;8.960;2023-04-16T00:05:32;2.97;;;2.77;;
3149;SDS011;32503;47.748;8.960;2023-04-16T00:08:00;3.80;;;3.50;;
3149;SDS011;32503;47.748;8.960;2023-04-16T00:10:27;3.70;;;3.50;;
3149;SDS011;32503;47.748;8.960;2023-04-16T00:12:56;3.60;;;3.40;;
3149;SDS011;32503;47.748;8.960;2023-04-16T00:15:23;3.20;;;3.10;;
3149;SDS011;32503;47.748;8.960;2023-04-16T00:17:50;3.07;;;2.87;;
3149;SDS011;32503;47.748;8.960;2023-04-16T00:20:17;2.47;;;2.27;;
3149;SDS011;32503;47.748;8.960;2023-04-16T00:22:45;2.80;;;2.70;;
3149;SDS011;32503;47.748;8.960;2023-04-16T00:25:13;2.53;;;2.43;;
3149;SDS011;32503;47.748;8.960;2023-04-16T00:27:40;3.23;;;3.00;;
3149;SDS011;32503;47.748;8.960;2023-04-16T00:30:08;2.97;;;2.77;;
3149;SDS011;32503;47.748;8.960;2023-04-16T00:32:35;2.80;;;2.60;;
3149;SDS011;32503;47.748;8.960;2023-04-16T00:35:03;3.10;;;2.90;;
3149;SDS011;32503;47.748;8.960;2023-04-16T00:37:31;2.47;;;2.37;;
3149;SDS011;32503;47.748;8.960;2023-04-16T00:39:58;3.07;;;2.90;;
3149;SDS011;32503;47.748;8.960;2023-04-16T00:42:27;2.70;;;2.60;;
3149;SDS011;32503;47.748;8.960;2023-04-16T00:44:54;2.50;;;2.40;;
3149;SDS011;32503;47.748;8.960;2023-04-16T00:47:21;2.47;;;2.37;;
3149;SDS011;32503;47.748;8.960;2023-04-16T00:49:49;2.60;;;2.50;;
3149;SDS011;32503;47.748;8.960;2023-04-16T00:52:16;3.03;;;2.83;;
3149;SDS011;32503;47.748;8.960;2023-04-16T00:54:43;3.53;;;2.70;;
3149;SDS011;32503;47.748;8.960;2023-04-16T00:57:11;3.10;;;2.93;;
3149;SDS011;32503;47.748;8.960;2023-04-16T00:59:41;3.70;;;3.40;;
3149;SDS011;32503;47.748;8.960;2023-04-16T01:02:08;2.80;;;2.60;;
3149;SDS011;32503;47.748;8.960;2023-04-16T01:04:36;3.00;;;2.90;;
3149;SDS011;32503;47.748;8.960;2023-04-16T01:07:03;2.20;;;2.10;;
3149;SDS011;32503;47.748;8.960;2023-04-16T01:09:30;2.57;;;2.40;;
3149;SDS011;32503;47.748;8.960;2023-04-16T01:11:57;2.53;;;2.33;;
3149;SDS011;32503;47.748;8.960;2023-04-16T01:14:26;2.00;;;1.90;;
3149;SDS011;32503;47.748;8.960;2023-04-16T01:16:54;3.40;;;2.70;;
3149;SDS011;32503;47.748;8.960;2023-04-16T01:19:21;2.23;;;2.13;;
3149;SDS011;32503;47.748;8.960;2023-04-16T01:21:49;2.33;;;2.23;;
3149;SDS011;32503;47.748;8.960;2023-04-16T01:24:16;2.83;;;2.63;;
3149;SDS011;32503;47.748;8.960;2023-04-16T01:26:43;2.30;;;2.20;;
3149;SDS011;32503;47.748;8.960;2023-04-16T01:29:10;3.33;;;3.13;;
3149;SDS011;32503;47.748;8.960;2023-04-16T01:31:37;2.63;;;2.53;;
3149;SDS011;32503;47.748;8.960;2023-04-16T01:34:05;3.07;;;2.87;;
3149;SDS011;32503;47.748;8.960;2023-04-16T01:36:32;2.70;;;2.60;;
3149;SDS011;32503;47.748;8.960;2023-04-16T01:39:00;3.00;;;2.83;;
3149;SDS011;32503;47.748;8.960;2023-04-16T01:41:27;2.90;;;2.40;;
3149;SDS011;32503;47.748;8.960;2023-04-16T01:43:55;2.43;;;2.23;;
3149;SDS011;32503;47.748;8.960;2023-04-16T01:46:24;3.20;;;3.00;;
3149;SDS011;32503;47.748;8.960;2023-04-16T01:48:53;2.73;;;2.53;;
3149;SDS011;32503;47.748;8.960;2023-04-16T01:51:21;3.00;;;2.80;;
3149;SDS011;32503;47.748;8.960;2023-04-16T01:53:48;3.00;;;2.90;;
3149;SDS011;32503;47.748;8.960;2023-04-16T01:56:17;3.00;;;2.80;;
3149;SDS011;32503;47.748;8.960;2023-04-16T01:58:44;2.90;;;2.70;;
3149;SDS011;32503;47.748;8.960;2023-04-16T02:01:12;3.50;;;3.30;;
3149;SDS011;32503;47.748;8.960;2023-04-16T02:03:39;3.47;;;3.27;;
3149;SDS011;32503;47.748;8.960;2023-04-16T02:06:06;4.27;;;4.07;;
3149;SDS011;32503;47.748;8.960;2023-04-16T02:08:33;3.57;;;3.27;;
3149;SDS011;32503;47.748;8.960;2023-04-16T02:11:00;3.00;;;2.90;;
3149;SDS011;32503;47.748;8.960;2023-04-16T02:13:29;3.30;;;3.10;;
3149;SDS011;32503;47.748;8.960;2023-04-16T02:15:56;2.97;;;2.77;;
3149;SDS011;32503;47.748;8.960;2023-04-16T02:18:23;3.57;;;3.37;;
3149;SDS011;32503;47.748;8.960;2023-04-16T02:20:50;3.00;;;2.80;;
3149;SDS011;32503;47.748;8.960;2023-04-16T02:23:17;3.27;;;3.00;;
3149;SDS011;32503;47.748;8.960;2023-04-16T02:25:44;3.17;;;2.97;;
3149;SDS011;32503;47.748;8.960;2023-04-16T02:28:13;2.90;;;2.80;;
3149;SDS011;32503;47.748;8.960;2023-04-16T02:30:43;3.90;;;3.60;;
3149;SDS011;32503;47.748;8.960;2023-04-16T02:33:10;2.70;;;2.50;;
3149;SDS011;32503;47.748;8.960;2023-04-16T02:35:38;3.80;;;3.50;;
3149;SDS011;32503;47.748;8.960;2023-04-16T02:38:06;3.73;;;3.53;;
3149;SDS011;32503;47.748;8.960;2023-04-16T02:40:33;5.23;;;4.83;;
3149;SDS011;32503;47.748;8.960;2023-04-16T02:43:00;5.80;;;5.30;;
3149;SDS011;32503;47.748;8.960;2023-04-16T02:45:28;5.33;;;4.80;;
3149;SDS011;32503;47.748;8.960;2023-04-16T02:47:56;3.30;;;3.00;;
3149;SDS011;32503;47.748;8.960;2023-04-16T02:50:24;5.00;;;4.60;;
3149;SDS011;32503;47.748;8.960;2023-04-16T02:52:51;3.73;;;3.50;;
3149;SDS011;32503;47.748;8.960;2023-04-16T02:55:18;4.07;;;3.77;;
3149;SDS011;32503;47.748;8.960;2023-04-16T02:57:45;4.20;;;3.90;;
3149;SDS011;32503;47.748;8.960;2023-04-16T03:00:13;4.30;;;3.90;;
3149;SDS011;32503;47.748;8.960;2023-04-16T03:02:40;4.20;;;3.90;;
3149;SDS011;32503;47.748;8.960;2023-04-16T03:05:09;3.90;;;3.60;;
3149;SDS011;32503;47.748;8.960;2023-04-16T03:07:36;4.20;;;3.90;;
3149;SDS011;32503;47.748;8.960;2023-04-16T03:10:05;3.17;;;2.97;;
3149;SDS011;32503;47.748;8.960;2023-04-16T03:12:34;4.10;;;3.90;;
3149;SDS011;32503;47.748;8.960;2023-04-16T03:15:01;3.40;;;3.20;;
3149;SDS011;32503;47.748;8.960;2023-04-16T03:17:28;4.40;;;4.00;;
3149;SDS011;32503;47.748;8.960;2023-04-16T03:19:55;3.93;;;3.60;;
3149;SDS011;32503;47.748;8.960;2023-04-16T03:22:24;4.80;;;4.47;;
3149;SDS011;32503;47.748;8.960;2023-04-16T03:24:51;4.87;;;4.17;;
3149;SDS011;32503;47.748;8.960;2023-04-16T03:27:18;3.23;;;3.03;;
3149;SDS011;32503;47.748;8.960;2023-04-16T03:29:45;3.30;;;3.10;;
3149;SDS011;32503;47.748;8.960;2023-04-16T03:32:12;4.47;;;3.87;;
3149;SDS011;32503;47.748;8.960;2023-04-16T03:34:39;5.20;;;4.40;;
3149;SDS011;32503;47.748;8.960;2023-04-16T03:37:06;4.80;;;4.40;;
3149;SDS011;32503;47.748;8.960;2023-04-16T03:39:37;5.13;;;4.70;;
3149;SDS011;32503;47.748;8.960;2023-04-16T03:42:04;4.13;;;3.83;;
3149;SDS011;32503;47.748;8.960;2023-04-16T03:44:31;3.70;;;3.50;;
3149;SDS011;32503;47.748;8.960;2023-04-16T03:46:58;4.13;;;3.83;;
3149;SDS011;32503;47.748;8.960;2023-04-16T03:49:26;4.30;;;4.00;;
3149;SDS011;32503;47.748;8.960;2023-04-16T03:51:53;3.97;;;3.67;;
3149;SDS011;32503;47.748;8.960;2023-04-16T03:54:20;4.37;;;4.03;;
3149;SDS011;32503;47.748;8.960;2023-04-16T03:56:48;3.90;;;3.70;;
3149;SDS011;32503;47.748;8.960;2023-04-16T03:59:16;3.90;;;3.60;;
3149;SDS011;32503;47.748;8.960;2023-04-16T04:01:43;4.70;;;4.30;;
3149;SDS011;32503;47.748;8.960;2023-04-16T04:04:10;4.00;;;3.70;;
3149;SDS011;32503;47.748;8.960;2023-04-16T04:06:37;5.13;;;4.40;;
3149;SDS011;32503;47.748;8.960;2023-04-16T04:09:04;4.73;;;4.33;;
3149;SDS011;32503;47.748;8.960;2023-04-16T04:11:31;4.00;;;3.70;;
3149;SDS011;32503;47.748;8.960;2023-04-16T04:13:59;4.10;;;3.80;;
3149;SDS011;32503;47.748;8.960;2023-04-16T04:16:26;3.77;;;3.57;;
3149;SDS011;32503;47.748;8.960;2023-04-16T04:18:53;5.00;;;4.50;;
3149;SDS011;32503;47.748;8.960;2023-04-16T04:21:20;6.57;;;5.50;;
3149;SDS011;32503;47.748;8.960;2023-04-16T04:23:48;4.90;;;4.60;;
3149;SDS011;32503;47.748;8.960;2023-04-16T04:26:15;5.00;;;4.60;;
3149;SDS011;32503;47.748;8.960;2023-04-16T04:28:42;5.03;;;4.50;;
3149;SDS011;32503;47.748;8.960;2023-04-16T04:31:10;4.97;;;4.57;;
3149;SDS011;32503;47.748;8.960;2023-04-16T04:33:37;5.10;;;4.30;;
3149;SDS011;32503;47.748;8.960;2023-04-16T04:36:05;5.60;;;4.37;;
3149;SDS011;32503;47.748;8.960;2023-04-16T04:38:32;7.03;;;5.17;;
3149;SDS011;32503;47.748;8.960;2023-04-16T04:40:59;5.13;;;4.70;;
3149;SDS011;32503;47.748;8.960;2023-04-16T04:43:26;5.43;;;5.00;;
3149;SDS011;32503;47.748;8.960;2023-04-16T04:45:53;5.67;;;5.17;;
3149;SDS011;32503;47.748;8.960;2023-04-16T04:48:22;5.27;;;4.87;;
3149;SDS011;32503;47.748;8.960;2023-04-16T04:50:50;5.47;;;5.07;;
3149;SDS011;32503;47.748;8.960;2023-04-16T04:53:18;5.80;;;5.30;;
3149;SDS011;32503;47.748;8.960;2023-04-16T04:55:45;5.30;;;4.90;;
3149;SDS011;32503;47.748;8.960;2023-04-16T04:58:12;5.50;;;5.00;;
3149;SDS011;32503;47.748;8.960;2023-04-16T05:00:40;5.30;;;5.00;;
3149;SDS011;32503;47.748;8.960;2023-04-16T05:03:08;6.27;;;5.67;;
3149;SDS011;32503;47.748;8.960;2023-04-16T05:05:38;4.33;;;4.00;;
3149;SDS011;32503;47.748;8.960;2023-04-16T05:08:05;5.70;;;5.13;;
3149;SDS011;32503;47.748;8.960;2023-04-16T05:10:32;5.43;;;4.93;;
3149;SDS011;32503;47.748;8.960;2023-04-16T05:12:59;5.37;;;4.97;;
3149;SDS011;32503;47.748;8.960;2023-04-16T05:15:27;5.57;;;5.07;;
3149;SDS011;32503;47.748;8.960;2023-04-16T05:17:54;5.17;;;4.80;;
3149;SDS011;32503;47.748;8.960;2023-04-16T05:20:21;6.37;;;5.73;;
3149;SDS011;32503;47.748;8.960;2023-04-16T05:22:50;5.83;;;5.30;;
3149;SDS011;32503;47.748;8.960;2023-04-16T05:25:19;5.90;;;5.10;;
3149;SDS011;32503;47.748;8.960;2023-04-16T05:27:46;6.57;;;5.97;;
3149;SDS011;32503;47.748;8.960;2023-04-16T05:30:13;4.63;;;4.33;;
3149;SDS011;32503;47.748;8.960;2023-04-16T05:32:40;4.80;;;4.40;;
3149;SDS011;32503;47.748;8.960;2023-04-16T05:35:08;5.40;;;4.50;;
3149;SDS011;32503;47.748;8.960;2023-04-16T05:37:35;6.30;;;5.80;;
3149;SDS011;32503;47.748;8.960;2023-04-16T05:40:03;5.53;;;5.03;;
3149;SDS011;32503;47.748;8.960;2023-04-16T05:42:32;5.50;;;4.90;;
3149;SDS011;32503;47.748;8.960;2023-04-16T05:45:00;6.03;;;4.83;;
3149;SDS011;32503;47.748;8.960;2023-04-16T05:47:29;5.87;;;5.13;;
3149;SDS011;32503;47.748;8.960;2023-04-16T05:49:56;4.90;;;4.60;;
3149;SDS011;32503;47.748;8.960;2023-04-16T05:52:23;5.00;;;4.63;;
3149;SDS011;32503;47.748;8.960;2023-04-16T05:54:50;5.53;;;5.13;;
3149;SDS011;32503;47.748;8.960;2023-04-16T05:57:18;4.73;;;4.40;;
3149;SDS011;32503;47.748;8.960;2023-04-16T05:59:45;4.43;;;4.13;;
3149;SDS011;32503;47.748;8.960;2023-04-16T06:02:12;3.93;;;3.73;;
3149;SDS011;32503;47.748;8.960;2023-04-16T06:04:39;4.20;;;3.90;;
3149;SDS011;32503;47.748;8.960;2023-04-16T06:07:06;3.87;;;3.57;;
3149;SDS011;32503;47.748;8.960;2023-04-16T06:09:33;4.33;;;4.07;;
3149;SDS011;32503;47.748;8.960;2023-04-16T06:12:00;4.40;;;4.10;;
3149;SDS011;32503;47.748;8.960;2023-04-16T06:14:29;4.30;;;3.73;;
3149;SDS011;32503;47.748;8.960;2023-04-16T06:16:56;4.30;;;4.00;;
3149;SDS011;32503;47.748;8.960;2023-04-16T06:19:23;4.37;;;4.07;;
3149;SDS011;32503;47.748;8.960;2023-04-16T06:21:50;4.23;;;3.93;;
3149;SDS011;32503;47.748;8.960;2023-04-16T06:24:18;4.73;;;4.33;;
3149;SDS011;32503;47.748;8.960;2023-04-16T06:26:45;4.10;;;3.80;;
3149;SDS011;32503;47.748;8.960;2023-04-16T06:29:12;4.37;;;4.07;;
3149;SDS011;32503;47.748;8.960;2023-04-16T06:31:40;4.30;;;3.90;;
3149;SDS011;32503;47.748;8.960;2023-04-16T06:34:07;4.37;;;3.90;;
3149;SDS011;32503;47.748;8.960;2023-04-16T06:36:34;3.47;;;3.27;;
3149;SDS011;32503;47.748;8.960;2023-04-16T06:39:02;4.40;;;4.10;;
3149;SDS011;32503;47.748;8.960;2023-04-16T06:41:29;4.20;;;3.90;;
3149;SDS011;32503;47.748;8.960;2023-04-16T06:43:57;3.47;;;3.23;;
3149;SDS011;32503;47.748;8.960;2023-04-16T06:46:24;4.00;;;3.70;;
3149;SDS011;32503;47.748;8.960;2023-04-16T06:48:52;4.20;;;3.90;;
3149;SDS011;32503;47.748;8.960;2023-04-16T06:51:19;4.03;;;3.63;;
3149;SDS011;32503;47.748;8.960;2023-04-16T06:53:46;4.60;;;4.07;;
3149;SDS011;32503;47.748;8.960;2023-04-16T06:56:14;3.50;;;3.30;;
3149;SDS011;32503;47.748;8.960;2023-04-16T06:58:41;4.23;;;3.90;;
3149;SDS011;32503;47.748;8.960;2023-04-16T07:01:08;3.77;;;3.57;;
3149;SDS011;32503;47.748;8.960;2023-04-16T07:03:35;4.30;;;4.00;;
3149;SDS011;32503;47.748;8.960;2023-04-16T07:06:04;4.73;;;4.43;;
3149;SDS011;32503;47.748;8.960;2023-04-16T07:08:31;3.67;;;3.37;;
3149;SDS011;32503;47.748;8.960;2023-04-16T07:10:58;3.47;;;3.20;;
3149;SDS011;32503;47.748;8.960;2023-04-16T07:13:25;6.57;;;3.17;;
3149;SDS011;32503;47.748;8.960;2023-04-16T07:15:52;4.53;;;4.20;;
3149;SDS011;32503;47.748;8.960;2023-04-16T07:18:19;4.33;;;4.13;;
3149;SDS011;32503;47.748;8.960;2023-04-16T07:20:46;4.70;;;4.40;;
3149;SDS011;32503;47.748;8.960;2023-04-16T07:23:15;4.80;;;4.40;;
3149;SDS011;32503;47.748;8.960;2023-04-16T07:25:42;4.40;;;4.00;;
3149;SDS011;32503;47.748;8.960;2023-04-16T07:28:09;4.10;;;3.80;;
3149;SDS011;32503;47.748;8.960;2023-04-16T07:30:36;3.70;;;3.40;;
3149;SDS011;32503;47.748;8.960;2023-04-16T07:33:03;3.60;;;3.40;;
3149;SDS011;32503;47.748;8.960;2023-04-16T07:35:30;4.50;;;4.10;;
3149;SDS011;32503;47.748;8.960;2023-04-16T07:37:57;4.30;;;4.00;;
3149;SDS011;32503;47.748;8.960;2023-04-16T07:40:26;3.43;;;3.23;;
3149;SDS011;32503;47.748;8.960;2023-04-16T07:42:53;3.73;;;3.43;;
3149;SDS011;32503;47.748;8.960;2023-04-16T07:45:20;3.57;;;3.30;;
3149;SDS011;32503;47.748;8.960;2023-04-16T07:47:48;4.13;;;3.93;;
3149;SDS011;32503;47.748;8.960;2023-04-16T07:50:15;3.00;;;2.90;;
3149;SDS011;32503;47.748;8.960;2023-04-16T07:52:43;3.37;;;3.17;;
3149;SDS011;32503;47.748;8.960;2023-04-16T07:55:10;3.03;;;2.93;;
3149;SDS011;32503;47.748;8.960;2023-04-16T07:57:39;3.23;;;3.03;;
3149;SDS011;32503;47.748;8.960;2023-04-16T08:00:06;3.00;;;2.80;;
3149;SDS011;32503;47.748;8.960;2023-04-16T08:02:35;4.30;;;4.00;;
3149;SDS011;32503;47.748;8.960;2023-04-16T08:05:02;3.50;;;3.00;;
3149;SDS011;32503;47.748;8.960;2023-04-16T08:07:30;4.20;;;3.90;;
3149;SDS011;32503;47.748;8.960;2023-04-16T08:09:57;4.60;;;4.30;;
3149;SDS011;32503;47.748;8.960;2023-04-16T08:12:24;4.60;;;4.30;;
3149;SDS011;32503;47.748;8.960;2023-04-16T08:14:52;3.43;;;3.13;;
3149;SDS011;32503;47.748;8.960;2023-04-16T08:17:20;4.23;;;3.93;;
3149;SDS011;32503;47.748;8.960;2023-04-16T08:19:47;3.73;;;3.43;;
3149;SDS011;32503;47.748;8.960;2023-04-16T08:22:14;3.77;;;3.47;;
3149;SDS011;32503;47.748;8.960;2023-04-16T08:24:41;3.40;;;3.10;;
3149;SDS011;32503;47.748;8.960;2023-04-16T08:27:08;3.87;;;3.60;;
3149;SDS011;32503;47.748;8.960;2023-04-16T08:29:35;4.03;;;3.80;;
3149;SDS011;32503;47.748;8.960;2023-04-16T08:32:04;3.90;;;3.47;;
3149;SDS011;32503;47.748;8.960;2023-04-16T08:34:33;3.70;;;3.50;;
3149;SDS011;32503;47.748;8.960;2023-04-16T08:37:00;4.83;;;4.43;;
3149;SDS011;32503;47.748;8.960;2023-04-16T08:39:27;3.60;;;3.40;;
3149;SDS011;32503;47.748;8.960;2023-04-16T08:41:54;4.20;;;3.90;;
3149;SDS011;32503;47.748;8.960;2023-04-16T08:44:24;3.60;;;3.40;;
3149;SDS011;32503;47.748;8.960;2023-04-16T08:46:53;3.47;;;3.27;;
3149;SDS011;32503;47.748;8.960;2023-04-16T08:49:24;3.80;;;3.53;;
3149;SDS011;32503;47.748;8.960;2023-04-16T08:51:52;4.10;;;3.80;;
3149;SDS011;32503;47.748;8.960;2023-04-16T08:54:27;4.10;;;3.80;;
3149;SDS011;32503;47.748;8.960;2023-04-16T08:57:14;4.40;;;4.10;;
3149;SDS011;32503;47.748;8.960;2023-04-16T08:59:45;3.50;;;3.30;;
3149;SDS011;32503;47.748;8.960;2023-04-16T09:02:13;4.83;;;4.40;;
3149;SDS011;32503;47.748;8.960;2023-04-16T09:04:41;3.67;;;3.37;;
3149;SDS011;32503;47.748;8.960;2023-04-16T09:07:09;4.77;;;4.40;;
3149;SDS011;32503;47.748;8.960;2023-04-16T09:09:37;3.63;;;3.43;;
3149;SDS011;32503;47.748;8.960;2023-04-16T09:12:05;4.47;;;4.10;;
3149;SDS011;32503;47.748;8.960;2023-04-16T09:14:33;4.73;;;4.33;;
3149;SDS011;32503;47.748;8.960;2023-04-16T09:17:02;3.57;;;3.30;;
3149;SDS011;32503;47.748;8.960;2023-04-16T09:19:31;4.57;;;4.17;;
3149;SDS011;32503;47.748;8.960;2023-04-16T09:21:59;4.47;;;3.83;;
3149;SDS011;32503;47.748;8.960;2023-04-16T09:24:27;4.07;;;3.77;;
3149;SDS011;32503;47.748;8.960;2023-04-16T09:26:55;4.57;;;4.27;;
3149;SDS011;32503;47.748;8.960;2023-04-16T09:29:32;3.67;;;3.40;;
3149;SDS011;32503;47.748;8.960;2023-04-16T09:32:01;4.07;;;3.77;;
3149;SDS011;32503;47.748;8.960;2023-04-16T09:34:30;4.80;;;4.27;;
3149;SDS011;32503;47.748;8.960;2023-04-16T09:39:55;4.40;;;4.10;;
3149;SDS011;32503;47.748;8.960;2023-04-16T09:42:24;3.53;;;3.33;;
3149;SDS011;32503;47.748;8.960;2023-04-16T09:44:53;4.00;;;3.70;;
3149;SDS011;32503;47.748;8.960;2023-04-16T09:47:21;3.73;;;3.43;;
3149;SDS011;32503;47.748;8.960;2023-04-16T09:49:49;3.37;;;3.17;;
3149;SDS011;32503;47.748;8.960;2023-04-16T09:52:16;3.73;;;3.50;;
3149;SDS011;32503;47.748;8.960;2023-04-16T09:54:46;4.80;;;4.30;;
3149;SDS011;32503;47.748;8.960;2023-04-16T09:57:18;3.17;;;2.97;;
3149;SDS011;32503;47.748;8.960;2023-04-16T09:59:47;3.13;;;2.93;;
3149;SDS011;32503;47.748;8.960;2023-04-16T10:02:17;3.73;;;3.53;;
3149;SDS011;32503;47.748;8.960;2023-04-16T10:04:45;3.77;;;3.47;;
3149;SDS011;32503;47.748;8.960;2023-04-16T10:07:13;3.70;;;3.23;;
3149;SDS011;32503;47.748;8.960;2023-04-16T10:09:40;3.20;;;3.00;;
3149;SDS011;32503;47.748;8.960;2023-04-16T10:12:08;2.90;;;2.80;;
3149;SDS011;32503;47.748;8.960;2023-04-16T10:14:38;4.00;;;3.80;;
3149;SDS011;32503;47.748;8.960;2023-04-16T10:17:05;3.10;;;2.80;;
3149;SDS011;32503;47.748;8.960;2023-04-16T10:19:33;3.63;;;3.43;;
3149;SDS011;32503;47.748;8.960;2023-04-16T10:22:01;2.90;;;2.80;;
3149;SDS011;32503;47.748;8.960;2023-04-16T10:24:29;3.00;;;2.70;;
3149;SDS011;32503;47.748;8.960;2023-04-16T10:26:58;3.70;;;3.50;;
3149;SDS011;32503;47.748;8.960;2023-04-16T10:29:27;2.77;;;2.57;;
3149;SDS011;32503;47.748;8.960;2023-04-16T10:31:56;3.30;;;3.10;;
3149;SDS011;32503;47.748;8.960;2023-04-16T10:34:24;3.87;;;3.17;;
3149;SDS011;32503;47.748;8.960;2023-04-16T10:36:53;3.50;;;3.20;;
3149;SDS011;32503;47.748;8.960;2023-04-16T10:39:21;2.97;;;2.80;;
3149;SDS011;32503;47.748;8.960;2023-04-16T10:41:49;3.50;;;3.20;;
3149;SDS011;32503;47.748;8.960;2023-04-16T10:44:31;3.27;;;3.07;;
3149;SDS011;32503;47.748;8.960;2023-04-16T10:46:59;2.60;;;2.50;;
3149;SDS011;32503;47.748;8.960;2023-04-16T10:49:27;2.90;;;2.70;;
3149;SDS011;32503;47.748;8.960;2023-04-16T10:51:54;3.17;;;2.70;;
3149;SDS011;32503;47.748;8.960;2023-04-16T10:54:23;4.43;;;4.03;;
3149;SDS011;32503;47.748;8.960;2023-04-16T10:56:52;2.67;;;2.57;;
3149;SDS011;32503;47.748;8.960;2023-04-16T10:59:22;3.00;;;2.70;;
3149;SDS011;32503;47.748;8.960;2023-04-16T11:01:51;3.60;;;3.40;;
3149;SDS011;32503;47.748;8.960;2023-04-16T11:04:28;2.90;;;2.70;;
3149;SDS011;32503;47.748;8.960;2023-04-16T11:07:01;2.63;;;2.43;;
3149;SDS011;32503;47.748;8.960;2023-04-16T11:09:41;2.90;;;2.70;;
3149;SDS011;32503;47.748;8.960;2023-04-16T11:12:18;2.57;;;2.47;;
3149;SDS011;32503;47.748;8.960;2023-04-16T11:14:47;2.70;;;2.50;;
3149;SDS011;32503;47.748;8.960;2023-04-16T11:17:16;2.50;;;2.30;;
3149;SDS011;32503;47.748;8.960;2023-04-16T11:19:45;2.97;;;2.77;;
3149;SDS011;32503;47.748;8.960;2023-04-16T11:22:14;3.17;;;2.93;;
3149;SDS011;32503;47.748;8.960;2023-04-16T11:24:43;2.50;;;2.40;;
3149;SDS011;32503;47.748;8.960;2023-04-16T11:27:11;2.67;;;2.47;;
3149;SDS011;32503;47.748;8.960;2023-04-16T11:29:39;3.00;;;2.80;;
3149;SDS011;32503;47.748;8.960;2023-04-16T11:32:06;2.80;;;2.60;;
3149;SDS011;32503;47.748;8.960;2023-04-16T11:34:33;2.83;;;2.33;;
3149;SDS011;32503;47.748;8.960;2023-04-16T11:37:10;2.43;;;2.30;;
3149;SDS011;32503;47.748;8.960;2023-04-16T11:39:46;3.40;;;2.13;;
3149;SDS011;32503;47.748;8.960;2023-04-16T11:42:19;1.93;;;1.83;;
3149;SDS011;32503;47.748;8.960;2023-04-16T11:44:50;6.27;;;5.10;;
3149;SDS011;32503;47.748;8.960;2023-04-16T11:47:19;3.00;;;2.80;;
3149;SDS011;32503;47.748;8.960;2023-04-16T11:49:48;6.10;;;2.83;;
3149;SDS011;32503;47.748;8.960;2023-04-16T11:52:26;2.10;;;1.90;;
3149;SDS011;32503;47.748;8.960;2023-04-16T11:54:55;2.90;;;2.70;;
3149;SDS011;32503;47.748;8.960;2023-04-16T11:57:23;2.30;;;2.20;;
3149;SDS011;32503;47.748;8.960;2023-04-16T11:59:51;2.07;;;1.97;;
3149;SDS011;32503;47.748;8.960;2023-04-16T12:02:32;2.20;;;2.10;;
3149;SDS011;32503;47.748;8.960;2023-04-16T12:05:01;4.10;;;3.73;;
3149;SDS011;32503;47.748;8.960;2023-04-16T12:07:30;2.80;;;2.60;;
3149;SDS011;32503;47.748;8.960;2023-04-16T12:10:03;2.40;;;2.30;;
3149;SDS011;32503;47.748;8.960;2023-04-16T12:12:32;3.30;;;3.00;;
3149;SDS011;32503;47.748;8.960;2023-04-16T12:15:00;3.63;;;3.30;;
3149;SDS011;32503;47.748;8.960;2023-04-16T12:17:28;3.73;;;3.53;;
3149;SDS011;32503;47.748;8.960;2023-04-16T12:19:56;2.80;;;2.60;;
3149;SDS011;32503;47.748;8.960;2023-04-16T12:22:26;2.27;;;2.17;;
3149;SDS011;32503;47.748;8.960;2023-04-16T12:24:56;2.50;;;2.30;;
3149;SDS011;32503;47.748;8.960;2023-04-16T12:27:24;3.03;;;2.83;;
3149;SDS011;32503;47.748;8.960;2023-04-16T12:30:02;2.80;;;2.60;;
3149;SDS011;32503;47.748;8.960;2023-04-16T12:32:31;3.60;;;3.40;;
3149;SDS011;32503;47.748;8.960;2023-04-16T12:34:58;3.60;;;3.33;;
3149;SDS011;32503;47.748;8.960;2023-04-16T12:37:25;3.90;;;3.60;;
3149;SDS011;32503;47.748;8.960;2023-04-16T12:39:53;6.00;;;4.10;;
3149;SDS011;32503;47.748;8.960;2023-04-16T12:42:21;5.90;;;5.30;;
3149;SDS011;32503;47.748;8.960;2023-04-16T12:44:48;7.00;;;5.20;;
3149;SDS011;32503;47.748;8.960;2023-04-16T12:47:15;6.23;;;5.10;;
3149;SDS011;32503;47.748;8.960;2023-04-16T12:49:42;7.20;;;5.60;;
3149;SDS011;32503;47.748;8.960;2023-04-16T12:52:09;8.50;;;6.20;;
3149;SDS011;32503;47.748;8.960;2023-04-16T12:54:37;10.20;;;6.97;;
3149;SDS011;32503;47.748;8.960;2023-04-16T12:57:04;6.97;;;6.27;;
3149;SDS011;32503;47.748;8.960;2023-04-16T12:59:32;7.70;;;6.70;;
3149;SDS011;32503;47.748;8.960;2023-04-16T13:01:59;9.23;;;6.13;;
3149;SDS011;32503;47.748;8.960;2023-04-16T13:04:27;7.10;;;6.40;;
3149;SDS011;32503;47.748;8.960;2023-04-16T13:06:54;6.40;;;5.37;;
3149;SDS011;32503;47.748;8.960;2023-04-16T13:09:21;8.90;;;7.27;;
3149;SDS011;32503;47.748;8.960;2023-04-16T13:11:48;7.40;;;6.37;;
3149;SDS011;32503;47.748;8.960;2023-04-16T13:14:15;9.90;;;6.70;;
3149;SDS011;32503;47.748;8.960;2023-04-16T13:16:44;7.53;;;6.33;;
3149;SDS011;32503;47.748;8.960;2023-04-16T13:19:11;6.87;;;6.03;;
3149;SDS011;32503;47.748;8.960;2023-04-16T13:21:39;6.87;;;6.13;;
3149;SDS011;32503;47.748;8.960;2023-04-16T13:24:07;7.80;;;6.97;;
3149;SDS011;32503;47.748;8.960;2023-04-16T13:26:34;8.70;;;6.13;;
3149;SDS011;32503;47.748;8.960;2023-04-16T13:29:01;8.00;;;7.20;;
3149;SDS011;32503;47.748;8.960;2023-04-16T13:31:28;8.30;;;7.50;;
3149;SDS011;32503;47.748;8.960;2023-04-16T13:33:56;8.97;;;7.17;;
3149;SDS011;32503;47.748;8.960;2023-04-16T13:36:23;8.30;;;6.70;;
3149;SDS011;32503;47.748;8.960;2023-04-16T13:38:51;10.23;;;7.57;;
3149;SDS011;32503;47.748;8.960;2023-04-16T13:41:18;9.03;;;7.33;;
3149;SDS011;32503;47.748;8.960;2023-04-16T13:43:45;9.80;;;8.50;;
3149;SDS011;32503;47.748;8.960;2023-04-16T13:46:12;9.90;;;7.90;;
3149;SDS011;32503;47.748;8.960;2023-04-16T13:48:39;11.50;;;7.33;;
3149;SDS011;32503;47.748;8.960;2023-04-16T13:51:08;11.83;;;7.70;;
3149;SDS011;32503;47.748;8.960;2023-04-16T13:53:35;7.37;;;6.67;;
3149;SDS011;32503;47.748;8.960;2023-04-16T13:56:02;9.97;;;8.00;;
3149;SDS011;32503;47.748;8.960;2023-04-16T13:58:31;9.33;;;7.80;;
3149;SDS011;32503;47.748;8.960;2023-04-16T14:00:58;7.53;;;6.33;;
3149;SDS011;32503;47.748;8.960;2023-04-16T14:03:25;7.90;;;7.07;;
3149;SDS011;32503;47.748;8.960;2023-04-16T14:05:52;11.37;;;7.93;;
3149;SDS011;32503;47.748;8.960;2023-04-16T14:08:20;7.90;;;6.80;;
3149;SDS011;32503;47.748;8.960;2023-04-16T14:10:48;7.60;;;6.10;;
3149;SDS011;32503;47.748;8.960;2023-04-16T14:13:15;7.83;;;6.70;;
3149;SDS011;32503;47.748;8.960;2023-04-16T14:15:42;7.77;;;6.07;;
3149;SDS011;32503;47.748;8.960;2023-04-16T14:18:09;8.50;;;7.00;;
3149;SDS011;32503;47.748;8.960;2023-04-16T14:20:36;9.73;;;7.90;;
3149;SDS011;32503;47.748;8.960;2023-04-16T14:23:04;10.40;;;8.00;;
3149;SDS011;32503;47.748;8.960;2023-04-16T14:25:32;8.90;;;7.03;;
3149;SDS011;32503;47.748;8.960;2023-04-16T14:27:59;9.47;;;7.07;;
3149;SDS011;32503;47.748;8.960;2023-04-16T14:30:27;8.40;;;7.30;;
3149;SDS011;32503;47.748;8.960;2023-04-16T14:32:54;8.97;;;7.10;;
3149;SDS011;32503;47.748;8.960;2023-04-16T14:35:21;8.97;;;7.00;;
3149;SDS011;32503;47.748;8.960;2023-04-16T14:37:48;10.80;;;7.63;;
3149;SDS011;32503;47.748;8.960;2023-04-16T14:40:15;9.67;;;7.00;;
3149;SDS011;32503;47.748;8.960;2023-04-16T14:42:44;7.47;;;6.73;;
3149;SDS011;32503;47.748;8.960;2023-04-16T14:45:11;8.97;;;7.97;;
3149;SDS011;32503;47.748;8.960;2023-04-16T14:47:38;7.70;;;6.90;;
3149;SDS011;32503;47.748;8.960;2023-04-16T14:50:09;8.33;;;6.90;;
3149;SDS011;32503;47.748;8.960;2023-04-16T14:52:37;6.20;;;5.57;;
3149;SDS011;32503;47.748;8.960;2023-04-16T14:55:05;8.00;;;6.27;;
3149;SDS011;32503;47.748;8.960;2023-04-16T14:57:32;6.50;;;6.00;;
3149;SDS011;32503;47.748;8.960;2023-04-16T15:00:01;6.80;;;6.20;;
3149;SDS011;32503;47.748;8.960;2023-04-16T15:02:34;7.07;;;6.27;;
3149;SDS011;32503;47.748;8.960;2023-04-16T15:05:01;6.97;;;6.00;;
3149;SDS011;32503;47.748;8.960;2023-04-16T15:07:29;8.03;;;7.23;;